Time;durP1;ratioP1;P1;durP2;ratioP2;P2;SDS_P1;SDS_P2;PMS_P1;PMS_P2;Temp;Humidity;BMP_temperature;BMP_pressure;BME280_temperature;BME280_humidity;BME280_pressure;Samples;Min_cycle;Max_cycle;Signal;HPM_P1;HPM_P2
2022/07/30 00:02:49;;;;;;;3.65;1.80;;;;;;;;;;10403752;28;20491;-45
2022/07/30 00:07:50;;;;;;;2.78;1.67;;;;;;;;;;10413971;28;20060;-53
2022/07/30 00:12:50;;;;;;;2.05;1.60;;;;;;;;;;10411958;28;20108;-53
2022/07/30 00:17:51;;;;;;;1.40;1.27;;;;;;;;;;10414068;28;20029;-48
2022/07/30 00:22:51;;;;;;;2.92;1.45;;;;;;;;;;10412789;28;20083;-45
2022/07/30 00:27:52;;;;;;;1.50;1.40;;;;;;;;;;10412588;28;20018;-44
2022/07/30 00:32:52;;;;;;;2.63;1.70;;;;;;;;;;10400215;28;20030;-45
2022/07/30 00:37:53;;;;;;;2.88;1.58;;;;;;;;;;10402163;28;20504;-45
2022/07/30 00:42:54;;;;;;;3.53;1.83;;;;;;;;;;10383921;28;20021;-45
2022/07/30 00:47:54;;;;;;;2.50;1.45;;;;;;;;;;10397876;28;20163;-44
2022/07/30 00:52:55;;;;;;;2.30;1.67;;;;;;;;;;10389920;28;20184;-44
2022/07/30 00:57:55;;;;;;;4.72;2.17;;;;;;;;;;10393776;28;20025;-44
2022/07/30 01:02:56;;;;;;;2.72;2.03;;;;;;;;;;10404483;28;20036;-44
2022/07/30 01:07:57;;;;;;;3.00;2.20;;;;;;;;;;10410850;28;20030;-45
2022/07/30 01:12:58;;;;;;;3.40;2.10;;;;;;;;;;10410727;28;20041;-46
2022/07/30 01:18:02;;;;;;;4.05;2.25;;;;;;;;;;10410533;28;20026;-50
2022/07/30 01:23:30;;;;;;;3.70;2.30;;;;;;;;;;10392655;28;20033;-45
2022/07/30 01:28:52;;;;;;;2.53;2.15;;;;;;;;;;10393226;28;20499;-45
2022/07/30 01:33:54;;;;;;;4.28;2.10;;;;;;;;;;10386617;28;20477;-46
2022/07/30 01:38:57;;;;;;;5.03;2.22;;;;;;;;;;10392838;28;20277;-45
2022/07/30 01:43:58;;;;;;;3.63;2.15;;;;;;;;;;10391510;28;20037;-45
2022/07/30 01:49:01;;;;;;;5.13;2.03;;;;;;;;;;10407821;28;20531;-45
2022/07/30 01:54:01;;;;;;;2.95;2.05;;;;;;;;;;10388594;28;20507;-45
2022/07/30 01:59:06;;;;;;;2.88;2.35;;;;;;;;;;10390202;28;20037;-45
2022/07/30 02:04:06;;;;;;;3.70;2.25;;;;;;;;;;10397407;28;20068;-45
2022/07/30 02:09:08;;;;;;;8.07;2.38;;;;;;;;;;10407748;28;20145;-44
2022/07/30 02:14:27;;;;;;;5.13;2.50;;;;;;;;;;10390901;28;20373;-46
2022/07/30 02:19:38;;;;;;;3.75;2.20;;;;;;;;;;10389496;28;20029;-45
2022/07/30 02:24:41;;;;;;;6.28;2.40;;;;;;;;;;10390892;28;20022;-45
2022/07/30 02:29:44;;;;;;;4.75;2.63;;;;;;;;;;10391247;28;20035;-59
2022/07/30 02:34:52;;;;;;;6.05;2.42;;;;;;;;;;10397961;28;20038;-45
2022/07/30 02:39:54;;;;;;;3.08;2.35;;;;;;;;;;10405288;28;20029;-46
2022/07/30 02:44:57;;;;;;;5.40;2.30;;;;;;;;;;10389000;28;20401;-45
2022/07/30 02:49:59;;;;;;;4.00;2.25;;;;;;;;;;10389218;28;20091;-44
2022/07/30 02:55:02;;;;;;;3.53;2.53;;;;;;;;;;10389875;28;20480;-45
2022/07/30 03:00:05;;;;;;;6.63;3.10;;;;;;;;;;10389580;28;20026;-46
2022/07/30 03:05:07;;;;;;;6.65;2.50;;;;;;;;;;10430608;23;20057;-51
2022/07/30 03:10:10;;;;;;;5.00;2.65;;;;;;;;;;10461204;28;20108;-50
2022/07/30 03:15:11;;;;;;;5.53;3.15;;;;;;;;;;10457803;28;20028;-49
2022/07/30 03:20:16;;;;;;;5.50;3.05;;;;;;;;;;10458076;28;20124;-51
2022/07/30 03:25:23;;;;;;;8.73;3.10;;;;;;;;;;10449367;28;20032;-50
2022/07/30 03:30:24;;;;;;;8.35;3.10;;;;;;;;;;10456321;28;20029;-56
2022/07/30 03:35:26;;;;;;;4.22;3.03;;;;;;;;;;10448405;28;20031;-49
2022/07/30 03:40:28;;;;;;;3.20;2.90;;;;;;;;;;10473783;28;20033;-54
2022/07/30 03:45:29;;;;;;;5.50;2.58;;;;;;;;;;10456378;28;20064;-52
2022/07/30 03:50:30;;;;;;;7.22;2.85;;;;;;;;;;10446739;28;20082;-53
2022/07/30 03:55:31;;;;;;;6.55;2.90;;;;;;;;;;10474014;28;20369;-56
2022/07/30 04:00:32;;;;;;;8.85;2.80;;;;;;;;;;10488712;28;20059;-56
2022/07/30 04:05:33;;;;;;;5.93;3.83;;;;;;;;;;10461896;28;20048;-51
2022/07/30 04:10:33;;;;;;;4.85;3.22;;;;;;;;;;10480131;28;20211;-51
2022/07/30 04:16:10;;;;;;;5.78;2.90;;;;;;;;;;10495977;28;20020;-50
2022/07/30 04:21:15;;;;;;;6.25;3.10;;;;;;;;;;10495235;28;20525;-51
2022/07/30 04:26:17;;;;;;;3.60;2.55;;;;;;;;;;10450622;28;20061;-52
2022/07/30 04:31:18;;;;;;;2.90;2.00;;;;;;;;;;10474974;28;20048;-52
2022/07/30 04:36:18;;;;;;;8.32;2.97;;;;;;;;;;10465809;28;20460;-54
2022/07/30 04:41:19;;;;;;;2.47;1.80;;;;;;;;;;10486096;28;20445;-51
2022/07/30 04:46:20;;;;;;;5.90;2.50;;;;;;;;;;10479785;28;20391;-53
2022/07/30 04:51:33;;;;;;;4.75;2.67;;;;;;;;;;10458077;28;20017;-52
2022/07/30 04:56:36;;;;;;;4.68;3.00;;;;;;;;;;10490643;28;20445;-53
2022/07/30 05:01:40;;;;;;;6.13;2.33;;;;;;;;;;10470688;28;20086;-55
2022/07/30 05:06:42;;;;;;;9.43;2.92;;;;;;;;;;10471743;28;20055;-53
2022/07/30 05:11:51;;;;;;;5.18;2.80;;;;;;;;;;10474950;28;20036;-53
2022/07/30 05:16:52;;;;;;;16.05;2.90;;;;;;;;;;10453319;28;20059;-50
2022/07/30 05:21:53;;;;;;;4.53;2.55;;;;;;;;;;10484141;28;20496;-53
2022/07/30 05:26:53;;;;;;;6.90;2.90;;;;;;;;;;10464274;28;20032;-53
2022/07/30 05:31:54;;;;;;;11.75;3.00;;;;;;;;;;10481564;28;20025;-52
2022/07/30 05:36:54;;;;;;;6.45;2.38;;;;;;;;;;10452096;28;20048;-54
2022/07/30 05:41:55;;;;;;;8.27;2.70;;;;;;;;;;10485539;28;20888;-57
2022/07/30 05:46:56;;;;;;;8.38;2.25;;;;;;;;;;10465192;28;20489;-56
2022/07/30 05:51:56;;;;;;;11.00;2.55;;;;;;;;;;10467152;28;20032;-57
2022/07/30 05:56:57;;;;;;;6.50;2.42;;;;;;;;;;10484105;28;20028;-53
2022/07/30 06:01:57;;;;;;;6.75;2.70;;;;;;;;;;10467343;28;20093;-53
2022/07/30 06:06:58;;;;;;;6.50;2.20;;;;;;;;;;10473300;28;20085;-55
2022/07/30 06:11:58;;;;;;;3.65;1.90;;;;;;;;;;10466309;28;20040;-53
2022/07/30 06:16:59;;;;;;;5.95;2.08;;;;;;;;;;10459942;28;20040;-53
2022/07/30 06:21:59;;;;;;;4.20;2.38;;;;;;;;;;10479378;28;20078;-54
2022/07/30 06:27:00;;;;;;;5.93;2.63;;;;;;;;;;10482482;28;20098;-53
2022/07/30 06:32:01;;;;;;;3.88;1.67;;;;;;;;;;10485688;28;20024;-52
2022/07/30 06:37:02;;;;;;;5.40;2.25;;;;;;;;;;10456085;28;20033;-52
2022/07/30 06:42:03;;;;;;;3.47;2.20;;;;;;;;;;10476118;28;20059;-52
2022/07/30 06:47:04;;;;;;;3.83;2.20;;;;;;;;;;10482726;28;20028;-54
2022/07/30 06:52:05;;;;;;;10.93;2.28;;;;;;;;;;10467967;28;20025;-53
2022/07/30 06:57:06;;;;;;;9.38;1.92;;;;;;;;;;10488409;28;20429;-54
2022/07/30 07:02:07;;;;;;;4.05;2.33;;;;;;;;;;10489253;28;20039;-58
2022/07/30 07:07:07;;;;;;;3.88;2.80;;;;;;;;;;10481579;28;20048;-54
2022/07/30 07:12:08;;;;;;;5.63;2.72;;;;;;;;;;10472163;28;20024;-56
2022/07/30 07:17:08;;;;;;;4.93;2.90;;;;;;;;;;10482658;28;20085;-55
2022/07/30 07:22:09;;;;;;;6.78;2.95;;;;;;;;;;10471910;28;20043;-59
2022/07/30 07:27:10;;;;;;;4.80;2.97;;;;;;;;;;10480421;28;20033;-61
2022/07/30 07:32:11;;;;;;;4.57;2.92;;;;;;;;;;10481904;28;20028;-65
2022/07/30 07:37:14;;;;;;;3.35;2.20;;;;;;;;;;10465090;28;20062;-62
2022/07/30 07:42:14;;;;;;;2.88;2.33;;;;;;;;;;10487826;28;20021;-56
2022/07/30 07:47:15;;;;;;;5.70;2.30;;;;;;;;;;10484907;28;20387;-57
2022/07/30 07:52:15;;;;;;;6.18;1.88;;;;;;;;;;10480957;28;20395;-58
2022/07/30 07:57:16;;;;;;;3.85;2.25;;;;;;;;;;10495858;28;20028;-58
2022/07/30 08:02:16;;;;;;;3.25;1.98;;;;;;;;;;10481743;28;20101;-62
2022/07/30 08:07:17;;;;;;;5.97;2.08;;;;;;;;;;10485855;28;20048;-65
2022/07/30 08:12:18;;;;;;;3.83;2.15;;;;;;;;;;10494453;28;20472;-64
2022/07/30 08:17:18;;;;;;;8.55;2.30;;;;;;;;;;10495873;28;20517;-63
2022/07/30 08:22:19;;;;;;;4.53;2.42;;;;;;;;;;10488637;28;20081;-63
2022/07/30 08:27:19;;;;;;;6.55;2.30;;;;;;;;;;10476629;28;20514;-59
2022/07/30 08:32:20;;;;;;;9.77;2.50;;;;;;;;;;10463295;28;20468;-64
2022/07/30 08:37:21;;;;;;;3.03;2.35;;;;;;;;;;10459471;28;20075;-63
2022/07/30 08:42:22;;;;;;;7.95;3.40;;;;;;;;;;10454244;28;20025;-56
2022/07/30 08:47:29;;;;;;;3.33;2.55;;;;;;;;;;10453820;28;20060;-55
2022/07/30 08:52:41;;;;;;;6.10;2.95;;;;;;;;;;10474416;28;20064;-54
2022/07/30 08:57:42;;;;;;;4.80;2.90;;;;;;;;;;10446281;28;20108;-57
2022/07/30 09:02:44;;;;;;;19.05;4.97;;;;;;;;;;10459113;28;20029;-62
2022/07/30 09:07:44;;;;;;;28.50;6.63;;;;;;;;;;10484702;28;20112;-56
2022/07/30 09:12:45;;;;;;;13.63;3.92;;;;;;;;;;10482922;28;20029;-59
2022/07/30 09:17:52;;;;;;;6.72;3.20;;;;;;;;;;10472655;28;20039;-55
2022/07/30 09:22:58;;;;;;;3.97;2.70;;;;;;;;;;10480144;28;20099;-54
2022/07/30 09:28:00;;;;;;;6.70;2.85;;;;;;;;;;10480338;28;20043;-54
2022/07/30 09:33:00;;;;;;;6.00;2.45;;;;;;;;;;10482756;28;20373;-55
2022/07/30 09:38:03;;;;;;;8.98;3.53;;;;;;;;;;10466621;28;20036;-58
2022/07/30 09:43:07;;;;;;;10.65;3.08;;;;;;;;;;10472005;28;20032;-55
2022/07/30 09:48:21;;;;;;;4.35;2.60;;;;;;;;;;10464929;28;20033;-55
2022/07/30 09:53:22;;;;;;;2.97;2.20;;;;;;;;;;10477287;28;20058;-61
2022/07/30 09:58:22;;;;;;;5.47;2.20;;;;;;;;;;10473688;28;20423;-58
2022/07/30 10:03:24;;;;;;;6.82;2.63;;;;;;;;;;10480845;28;20125;-60
2022/07/30 10:08:49;;;;;;;2.90;2.30;;;;;;;;;;10459164;28;20029;-56
2022/07/30 10:13:55;;;;;;;2.67;2.10;;;;;;;;;;10473120;28;20032;-58
2022/07/30 10:18:59;;;;;;;3.42;2.17;;;;;;;;;;10468611;28;20029;-62
2022/07/30 10:24:00;;;;;;;2.53;1.98;;;;;;;;;;10476656;28;20083;-54
2022/07/30 10:29:02;;;;;;;4.72;2.17;;;;;;;;;;10464760;28;20063;-59
2022/07/30 10:34:03;;;;;;;1.95;1.75;;;;;;;;;;10485166;28;20036;-52
2022/07/30 10:39:06;;;;;;;2.13;1.92;;;;;;;;;;10481838;28;20027;-55
2022/07/30 10:44:16;;;;;;;4.65;2.03;;;;;;;;;;10451565;28;20062;-53
2022/07/30 10:49:17;;;;;;;4.32;1.95;;;;;;;;;;10467631;28;20012;-54
2022/07/30 10:54:32;;;;;;;4.30;2.22;;;;;;;;;;10468523;28;20487;-61
2022/07/30 10:59:57;;;;;;;3.65;1.73;;;;;;;;;;10481106;28;20105;-55
2022/07/30 11:05:34;;;;;;;2.10;1.90;;;;;;;;;;10469302;28;20144;-54
2022/07/30 11:10:40;;;;;;;9.68;2.00;;;;;;;;;;10282754;28;20043;-52
2022/07/30 11:15:59;;;;;;;2.85;2.00;;;;;;;;;;10262237;28;20179;-49
2022/07/30 11:21:19;;;;;;;9.43;2.22;;;;;;;;;;10271030;28;20442;-49
2022/07/30 11:26:45;;;;;;;2.20;1.77;;;;;;;;;;10274616;28;20054;-48
2022/07/30 11:31:45;;;;;;;3.60;2.08;;;;;;;;;;10266218;28;20498;-50
2022/07/30 11:37:13;;;;;;;8.02;2.47;;;;;;;;;;10278175;28;20057;-48
2022/07/30 11:42:31;;;;;;;1.98;1.80;;;;;;;;;;10335963;28;20041;-50
2022/07/30 11:47:32;;;;;;;7.30;2.08;;;;;;;;;;10475448;28;20068;-57
2022/07/30 11:52:33;;;;;;;6.18;2.00;;;;;;;;;;10482220;28;20029;-56
2022/07/30 11:57:43;;;;;;;2.53;1.85;;;;;;;;;;10445392;28;20033;-50
2022/07/30 12:02:45;;;;;;;6.55;1.80;;;;;;;;;;10469354;28;20036;-55
2022/07/30 12:07:45;;;;;;;3.15;1.90;;;;;;;;;;10479159;28;20419;-53
2022/07/30 12:12:46;;;;;;;5.60;2.00;;;;;;;;;;10465147;28;20033;-57
2022/07/30 12:17:47;;;;;;;2.47;1.80;;;;;;;;;;10448046;28;20029;-53
2022/07/30 12:22:47;;;;;;;3.78;1.75;;;;;;;;;;10455408;28;20028;-55
2022/07/30 12:27:49;;;;;;;2.38;1.80;;;;;;;;;;10466398;28;20035;-53
2022/07/30 12:32:50;;;;;;;4.15;2.22;;;;;;;;;;10489958;28;20026;-50
2022/07/30 12:38:04;;;;;;;6.93;1.90;;;;;;;;;;10454542;28;20499;-52
2022/07/30 12:43:04;;;;;;;5.72;1.77;;;;;;;;;;10482718;28;20033;-48
2022/07/30 12:48:10;;;;;;;4.60;1.88;;;;;;;;;;10494450;28;20078;-48
2022/07/30 12:53:10;;;;;;;6.15;1.73;;;;;;;;;;10480007;28;20541;-50
2022/07/30 12:58:11;;;;;;;6.05;2.20;;;;;;;;;;10482893;28;20421;-53
2022/07/30 13:03:27;;;;;;;5.40;1.95;;;;;;;;;;10479238;28;20268;-56
2022/07/30 13:08:51;;;;;;;5.43;1.90;;;;;;;;;;10492784;28;20040;-55
2022/07/30 13:13:52;;;;;;;8.15;1.88;;;;;;;;;;10488448;28;20484;-54
2022/07/30 13:18:52;;;;;;;3.42;1.83;;;;;;;;;;10485656;28;20039;-57
2022/07/30 13:23:53;;;;;;;7.45;2.20;;;;;;;;;;10461533;28;20029;-47
2022/07/30 13:28:57;;;;;;;2.88;1.98;;;;;;;;;;10462157;28;20024;-50
2022/07/30 13:33:58;;;;;;;13.23;2.28;;;;;;;;;;10479152;28;20060;-46
2022/07/30 13:38:58;;;;;;;8.73;2.60;;;;;;;;;;10493214;28;20107;-53
2022/07/30 13:43:59;;;;;;;5.22;2.05;;;;;;;;;;10483597;28;20037;-50
2022/07/30 13:48:59;;;;;;;3.03;1.60;;;;;;;;;;10469005;28;20075;-53
2022/07/30 13:54:00;;;;;;;5.00;2.25;;;;;;;;;;10484653;28;20029;-56
2022/07/30 13:59:01;;;;;;;4.60;1.98;;;;;;;;;;10486345;28;20023;-54
2022/07/30 14:04:01;;;;;;;5.65;2.05;;;;;;;;;;10489737;28;20052;-55
2022/07/30 14:09:02;;;;;;;3.53;1.65;;;;;;;;;;10483680;28;20055;-56
2022/07/30 14:14:03;;;;;;;3.65;2.00;;;;;;;;;;10473665;28;20021;-54
2022/07/30 14:19:04;;;;;;;3.17;1.65;;;;;;;;;;10463729;28;20029;-57
2022/07/30 14:24:05;;;;;;;2.78;1.67;;;;;;;;;;10472216;28;20123;-56
2022/07/30 14:29:06;;;;;;;2.72;1.80;;;;;;;;;;10487749;28;20027;-55
2022/07/30 14:34:06;;;;;;;4.78;1.85;;;;;;;;;;10488205;28;20426;-55
2022/07/30 14:39:07;;;;;;;2.67;1.50;;;;;;;;;;10488032;28;20066;-56
2022/07/30 14:44:10;;;;;;;1.83;1.20;;;;;;;;;;10470787;28;20033;-55
2022/07/30 14:49:11;;;;;;;2.42;1.73;;;;;;;;;;10481035;28;20035;-51
2022/07/30 14:54:12;;;;;;;9.65;1.70;;;;;;;;;;10484385;28;20020;-49
2022/07/30 14:59:12;;;;;;;6.40;2.05;;;;;;;;;;10474624;28;20035;-51
2022/07/30 15:04:13;;;;;;;4.20;1.92;;;;;;;;;;10484594;28;20041;-52
2022/07/30 15:09:14;;;;;;;4.60;1.80;;;;;;;;;;10479321;28;20106;-52
2022/07/30 15:14:15;;;;;;;3.72;1.67;;;;;;;;;;10490154;28;20105;-50
2022/07/30 15:19:15;;;;;;;2.88;1.77;;;;;;;;;;10463463;28;20495;-51
2022/07/30 15:24:16;;;;;;;2.40;1.40;;;;;;;;;;10490862;28;20035;-50
2022/07/30 15:29:16;;;;;;;2.30;1.40;;;;;;;;;;10448778;28;20024;-52
2022/07/30 15:34:17;;;;;;;6.15;1.60;;;;;;;;;;10456896;28;20037;-52
2022/07/30 15:39:17;;;;;;;3.20;1.80;;;;;;;;;;10490715;28;20017;-53
2022/07/30 15:44:18;;;;;;;5.30;1.60;;;;;;;;;;10455773;28;20438;-56
2022/07/30 15:49:19;;;;;;;4.05;1.73;;;;;;;;;;10489510;28;20029;-56
2022/07/30 15:54:23;;;;;;;4.07;1.42;;;;;;;;;;10489843;28;20052;-54
2022/07/30 15:59:24;;;;;;;5.22;1.55;;;;;;;;;;10477398;28;20036;-55
2022/07/30 16:04:26;;;;;;;3.92;1.65;;;;;;;;;;10490999;28;20067;-52
2022/07/30 16:09:27;;;;;;;2.28;1.48;;;;;;;;;;10496743;28;20024;-53
2022/07/30 16:14:28;;;;;;;1.83;1.25;;;;;;;;;;10497222;28;20029;-54
2022/07/30 16:19:28;;;;;;;2.08;1.40;;;;;;;;;;10493258;28;20028;-55
2022/07/30 16:24:29;;;;;;;2.65;1.70;;;;;;;;;;10484590;28;20029;-53
2022/07/30 16:29:29;;;;;;;2.50;1.33;;;;;;;;;;10455389;28;20033;-53
2022/07/30 16:34:31;;;;;;;2.80;1.30;;;;;;;;;;10468816;28;20029;-53
2022/07/30 16:39:32;;;;;;;2.35;1.40;;;;;;;;;;10455244;28;20125;-54
2022/07/30 16:44:34;;;;;;;1.70;1.50;;;;;;;;;;10454713;28;20033;-53
2022/07/30 16:49:34;;;;;;;1.52;1.40;;;;;;;;;;10482410;28;20031;-54
2022/07/30 16:54:35;;;;;;;2.42;1.90;;;;;;;;;;10468064;28;20476;-53
2022/07/30 16:59:36;;;;;;;3.15;1.63;;;;;;;;;;10454029;28;20029;-55
2022/07/30 17:04:37;;;;;;;1.77;1.50;;;;;;;;;;10467417;28;20053;-53
2022/07/30 17:09:38;;;;;;;1.80;1.60;;;;;;;;;;10480099;28;20058;-55
2022/07/30 17:14:42;;;;;;;1.67;1.40;;;;;;;;;;10481534;28;20423;-56
2022/07/30 17:19:43;;;;;;;4.13;1.77;;;;;;;;;;10471535;28;20274;-54
2022/07/30 17:24:43;;;;;;;4.40;1.70;;;;;;;;;;10477289;28;20033;-52
2022/07/30 17:29:44;;;;;;;1.92;1.70;;;;;;;;;;10465424;28;20029;-53
2022/07/30 17:34:47;;;;;;;2.60;1.60;;;;;;;;;;10478449;28;20029;-52
2022/07/30 17:39:47;;;;;;;4.60;1.67;;;;;;;;;;10469225;28;20044;-51
2022/07/30 17:44:48;;;;;;;2.35;1.60;;;;;;;;;;10487438;28;20051;-51
2022/07/30 17:49:48;;;;;;;2.83;1.80;;;;;;;;;;10491340;28;20038;-49
2022/07/30 17:54:49;;;;;;;3.88;1.60;;;;;;;;;;10489012;28;20031;-52
2022/07/30 17:59:49;;;;;;;3.53;1.77;;;;;;;;;;10490927;28;20035;-51
2022/07/30 18:04:50;;;;;;;3.45;1.70;;;;;;;;;;10496578;28;20055;-52
2022/07/30 18:09:51;;;;;;;2.38;1.50;;;;;;;;;;10469016;28;20020;-51
2022/07/30 18:14:51;;;;;;;1.98;1.60;;;;;;;;;;10458707;28;20037;-55
2022/07/30 18:19:52;;;;;;;3.35;1.58;;;;;;;;;;10483844;28;20028;-50
2022/07/30 18:24:52;;;;;;;5.72;1.80;;;;;;;;;;10489657;28;20414;-51
2022/07/30 18:29:53;;;;;;;9.70;2.72;;;;;;;;;;10465329;28;20397;-55
2022/07/30 18:34:53;;;;;;;8.13;2.63;;;;;;;;;;10492140;28;20111;-49
2022/07/30 18:39:54;;;;;;;6.53;2.90;;;;;;;;;;10464615;28;20052;-52
2022/07/30 18:44:55;;;;;;;7.03;3.00;;;;;;;;;;10454273;28;20048;-51
2022/07/30 18:49:55;;;;;;;4.47;2.83;;;;;;;;;;10471667;28;20025;-49
2022/07/30 18:54:56;;;;;;;6.72;2.78;;;;;;;;;;10452631;28;20098;-54
2022/07/30 18:59:56;;;;;;;5.45;2.72;;;;;;;;;;10478133;28;20036;-51
2022/07/30 19:04:57;;;;;;;5.05;2.65;;;;;;;;;;10486883;28;20283;-49
2022/07/30 19:09:59;;;;;;;4.10;2.58;;;;;;;;;;10489139;28;20040;-54
2022/07/30 19:15:00;;;;;;;3.65;2.50;;;;;;;;;;10478345;28;20014;-54
2022/07/30 19:20:03;;;;;;;5.90;2.53;;;;;;;;;;10476259;28;20061;-52
2022/07/30 19:25:04;;;;;;;6.43;2.13;;;;;;;;;;10474721;28;20410;-56
2022/07/30 19:30:05;;;;;;;5.93;2.08;;;;;;;;;;10467743;28;20045;-54
2022/07/30 19:35:07;;;;;;;5.22;2.20;;;;;;;;;;10488649;28;20041;-57
2022/07/30 19:40:08;;;;;;;2.72;1.70;;;;;;;;;;10467254;28;20029;-52
2022/07/30 19:45:10;;;;;;;5.03;1.95;;;;;;;;;;10496387;28;20029;-52
2022/07/30 19:50:11;;;;;;;7.45;2.20;;;;;;;;;;10484883;28;20029;-53
2022/07/30 19:55:12;;;;;;;3.92;1.92;;;;;;;;;;10454232;28;20021;-55
2022/07/30 20:00:14;;;;;;;3.90;1.60;;;;;;;;;;10463867;28;20036;-51
2022/07/30 20:05:15;;;;;;;2.15;1.40;;;;;;;;;;10459322;28;20618;-51
2022/07/30 20:10:15;;;;;;;4.82;1.52;;;;;;;;;;10462740;28;20115;-51
2022/07/30 20:15:16;;;;;;;3.38;1.40;;;;;;;;;;10458598;28;20036;-51
2022/07/30 20:20:17;;;;;;;3.28;1.60;;;;;;;;;;10458219;28;20021;-51
2022/07/30 20:25:17;;;;;;;3.80;1.85;;;;;;;;;;10462258;28;20090;-53
2022/07/30 20:30:18;;;;;;;1.75;1.63;;;;;;;;;;10483355;28;20025;-49
2022/07/30 20:35:20;;;;;;;4.65;1.92;;;;;;;;;;10454713;28;20032;-51
2022/07/30 20:40:21;;;;;;;3.10;1.55;;;;;;;;;;10479872;28;20394;-50
2022/07/30 20:45:22;;;;;;;4.03;1.42;;;;;;;;;;10483605;28;20112;-49
2022/07/30 20:50:23;;;;;;;1.42;1.33;;;;;;;;;;10478158;28;20395;-48
2022/07/30 20:55:25;;;;;;;2.58;1.95;;;;;;;;;;10484183;28;20111;-50
2022/07/30 21:00:25;;;;;;;3.97;1.60;;;;;;;;;;10495733;28;20093;-53
2022/07/30 21:05:26;;;;;;;2.63;1.90;;;;;;;;;;10494954;28;20117;-53
2022/07/30 21:10:27;;;;;;;3.65;1.65;;;;;;;;;;10494700;28;20024;-52
2022/07/30 21:15:27;;;;;;;4.90;1.67;;;;;;;;;;10491436;28;20035;-53
2022/07/30 21:20:30;;;;;;;4.20;1.70;;;;;;;;;;10465339;28;20039;-52
2022/07/30 21:25:31;;;;;;;1.55;1.45;;;;;;;;;;10484432;28;20032;-50
2022/07/30 21:30:32;;;;;;;3.05;1.83;;;;;;;;;;10459009;28;20028;-51
2022/07/30 21:35:32;;;;;;;10.10;1.77;;;;;;;;;;10470552;28;20050;-52
2022/07/30 21:40:33;;;;;;;5.85;1.50;;;;;;;;;;10479469;28;20025;-49
2022/07/30 21:45:34;;;;;;;6.10;1.75;;;;;;;;;;10483208;28;20035;-49
2022/07/30 21:50:40;;;;;;;3.30;1.75;;;;;;;;;;10469792;28;20081;-55
2022/07/30 21:55:41;;;;;;;5.45;1.88;;;;;;;;;;10471677;28;20045;-48
2022/07/30 22:01:00;;;;;;;3.50;1.80;;;;;;;;;;10482244;28;20037;-53
2022/07/30 22:06:02;;;;;;;1.52;1.42;;;;;;;;;;10476995;28;20055;-49
2022/07/30 22:11:03;;;;;;;3.13;1.63;;;;;;;;;;10490316;28;20070;-53
2022/07/30 22:16:03;;;;;;;3.22;2.00;;;;;;;;;;10476776;28;20090;-48
2022/07/30 22:21:04;;;;;;;4.75;1.70;;;;;;;;;;10489633;28;20074;-51
2022/07/30 22:26:05;;;;;;;3.83;2.10;;;;;;;;;;10474579;28;20457;-52
2022/07/30 22:31:06;;;;;;;7.95;2.10;;;;;;;;;;10453325;28;20031;-51
2022/07/30 22:36:07;;;;;;;3.20;2.13;;;;;;;;;;10484879;28;20046;-52
2022/07/30 22:41:10;;;;;;;8.80;2.45;;;;;;;;;;10478210;28;20031;-50
2022/07/30 22:46:11;;;;;;;5.25;1.88;;;;;;;;;;10487018;28;20029;-50
2022/07/30 22:51:11;;;;;;;3.53;1.80;;;;;;;;;;10476842;28;20051;-50
2022/07/30 22:56:12;;;;;;;7.18;1.98;;;;;;;;;;10462531;28;20035;-51
2022/07/30 23:01:13;;;;;;;3.75;1.88;;;;;;;;;;10477366;28;20444;-48
2022/07/30 23:06:14;;;;;;;4.10;2.10;;;;;;;;;;10462093;28;20047;-50
2022/07/30 23:11:15;;;;;;;5.57;2.40;;;;;;;;;;10490197;28;20024;-50
2022/07/30 23:16:15;;;;;;;5.28;2.50;;;;;;;;;;10476443;28;20031;-50
2022/07/30 23:21:16;;;;;;;3.65;2.47;;;;;;;;;;10462077;28;20021;-50
2022/07/30 23:26:16;;;;;;;4.85;2.90;;;;;;;;;;10477747;28;20507;-51
2022/07/30 23:31:17;;;;;;;6.57;2.35;;;;;;;;;;10449276;28;20025;-52
2022/07/30 23:36:18;;;;;;;6.43;2.70;;;;;;;;;;10474179;28;20288;-49
2022/07/30 23:41:18;;;;;;;9.85;2.85;;;;;;;;;;10479705;28;20427;-49
2022/07/30 23:46:19;;;;;;;8.70;2.83;;;;;;;;;;10472012;28;20047;-50
2022/07/30 23:51:19;;;;;;;7.63;2.90;;;;;;;;;;10481065;28;20021;-50
2022/07/30 23:56:20;;;;;;;3.70;2.75;;;;;;;;;;10476639;28;20064;-49
